createdAt,value
2019-05-05T00:00:00.483Z,49.50
2019-05-05T00:02:41.804Z,49.40
2019-05-05T00:05:20.326Z,49.30
2019-05-05T00:07:51.113Z,49.30
2019-05-05T00:10:34.661Z,49.20
2019-05-05T00:13:14.934Z,49.20
2019-05-05T00:16:04.602Z,49.10
2019-05-05T00:18:36.310Z,49.20
2019-05-05T00:21:06.984Z,49.10
2019-05-05T00:23:37.753Z,49.10
2019-05-05T00:26:08.354Z,49.20
2019-05-05T00:28:39.234Z,49.30
2019-05-05T00:31:10.097Z,49.20
2019-05-05T00:33:40.879Z,49.20
2019-05-05T00:36:11.730Z,49.20
2019-05-05T00:38:44.332Z,49.30
2019-05-05T00:41:15.225Z,50.00
2019-05-05T00:43:46.089Z,49.20
2019-05-05T00:46:24.567Z,49.40
2019-05-05T00:48:55.535Z,49.50
2019-05-05T00:51:26.137Z,49.50
2019-05-05T00:53:57.002Z,49.30
2019-05-05T00:56:27.716Z,49.30
2019-05-05T00:59:04.474Z,49.90
2019-05-05T01:01:55.279Z,49.30
2019-05-05T01:04:35.135Z,49.30
2019-05-05T01:07:05.884Z,49.60
2019-05-05T01:09:36.533Z,49.70
2019-05-05T01:12:07.961Z,49.70
2019-05-05T01:14:38.810Z,49.80
2019-05-05T01:17:09.614Z,49.80
2019-05-05T01:19:40.689Z,50.00
2019-05-05T01:22:11.343Z,50.00
2019-05-05T01:24:42.414Z,50.00
2019-05-05T01:27:14.731Z,50.20
2019-05-05T01:29:45.833Z,50.10
2019-05-05T01:32:21.919Z,50.80
2019-05-05T01:34:54.792Z,50.30
2019-05-05T01:37:39.973Z,50.30
2019-05-05T01:40:25.868Z,50.40
2019-05-05T01:42:56.687Z,50.40
2019-05-05T01:45:27.549Z,50.40
2019-05-05T01:47:58.518Z,50.60
2019-05-05T01:50:29.332Z,50.50
2019-05-05T01:53:00.214Z,50.30
2019-05-05T01:55:31.122Z,50.20
2019-05-05T01:58:01.859Z,50.20
2019-05-05T02:00:34.709Z,50.10
2019-05-05T02:03:05.391Z,50.30
2019-05-05T02:05:36.102Z,50.40
2019-05-05T02:08:06.825Z,50.50
2019-05-05T02:10:37.475Z,50.50
2019-05-05T02:13:08.216Z,50.60
2019-05-05T02:15:39.258Z,50.60
2019-05-05T02:18:10.074Z,50.70
2019-05-05T02:21:04.959Z,50.80
2019-05-05T02:23:36.445Z,50.80
2019-05-05T02:26:08.332Z,50.80
2019-05-05T02:29:00.784Z,50.80
2019-05-05T02:31:50.405Z,50.90
2019-05-05T02:34:21.247Z,50.80
2019-05-05T02:36:52.018Z,50.80
2019-05-05T02:39:22.663Z,50.80
2019-05-05T02:41:54.813Z,50.80
2019-05-05T02:44:26.056Z,50.70
2019-05-05T02:47:04.772Z,50.80
2019-05-05T02:49:35.889Z,50.70
2019-05-05T02:52:06.658Z,50.80
2019-05-05T02:54:37.772Z,50.90
2019-05-05T02:57:08.830Z,50.60
2019-05-05T02:59:51.260Z,50.80
2019-05-05T03:02:24.107Z,50.80
2019-05-05T03:04:55.006Z,50.80
2019-05-05T03:07:26.350Z,50.70
2019-05-05T03:09:57.296Z,50.70
2019-05-05T03:12:27.985Z,50.70
2019-05-05T03:14:58.696Z,50.70
2019-05-05T03:17:29.243Z,50.60
2019-05-05T03:19:59.947Z,50.80
2019-05-05T03:22:30.822Z,50.80
2019-05-05T03:25:01.603Z,50.80
2019-05-05T03:27:34.134Z,50.80
2019-05-05T03:30:05.493Z,50.90
2019-05-05T03:32:36.420Z,50.90
2019-05-05T03:35:07.492Z,50.90
2019-05-05T03:37:38.146Z,50.90
2019-05-05T03:40:16.144Z,50.80
2019-05-05T03:43:17.958Z,50.90
2019-05-05T03:45:53.919Z,50.80
2019-05-05T03:48:24.880Z,50.90
2019-05-05T03:50:56.330Z,50.80
2019-05-05T03:53:27.259Z,50.80
2019-05-05T03:55:58.072Z,50.80
2019-05-05T03:58:28.636Z,50.80
2019-05-05T04:02:03.958Z,51.00
2019-05-05T04:04:40.363Z,51.10
2019-05-05T04:07:10.974Z,51.10
2019-05-05T04:09:43.598Z,51.10
2019-05-05T04:12:14.162Z,51.10
2019-05-05T04:14:46.142Z,50.90
2019-05-05T04:17:41.794Z,50.90
2019-05-05T04:20:27.499Z,50.90
2019-05-05T04:22:58.473Z,51.00
2019-05-05T04:25:29.335Z,50.80
2019-05-05T04:28:00.186Z,51.00
2019-05-05T04:30:30.865Z,51.00
2019-05-05T04:33:03.752Z,50.90
2019-05-05T04:35:34.505Z,50.90
2019-05-05T04:38:06.166Z,50.80
2019-05-05T04:40:36.920Z,50.80
2019-05-05T04:43:07.870Z,50.70
2019-05-05T04:45:38.581Z,50.70
2019-05-05T04:48:13.826Z,51.00
2019-05-05T04:51:04.652Z,50.90
2019-05-05T04:53:43.856Z,50.60
2019-05-05T04:56:15.606Z,50.50
2019-05-05T04:58:46.270Z,50.40
2019-05-05T05:01:17.299Z,50.40
2019-05-05T05:04:13.791Z,50.70
2019-05-05T05:06:47.825Z,50.20
2019-05-05T05:09:18.778Z,50.20
2019-05-05T05:11:49.655Z,50.30
2019-05-05T05:14:20.468Z,50.30
2019-05-05T05:16:54.087Z,50.30
2019-05-05T05:19:24.805Z,50.30
2019-05-05T05:22:01.630Z,50.30
2019-05-05T05:24:28.026Z,50.30
2019-05-05T05:26:58.861Z,50.30
2019-05-05T05:29:29.681Z,50.70
2019-05-05T05:32:00.490Z,50.10
2019-05-05T05:34:31.391Z,50.20
2019-05-05T05:37:04.111Z,50.10
2019-05-05T05:39:46.269Z,50.20
2019-05-05T05:42:16.960Z,50.10
2019-05-05T05:45:16.018Z,50.20
2019-05-05T05:48:06.971Z,50.10
2019-05-05T05:50:50.402Z,49.90
2019-05-05T05:53:21.363Z,49.90
2019-05-05T05:55:53.791Z,49.90
2019-05-05T05:58:24.675Z,49.90
2019-05-05T06:00:57.110Z,50.00
2019-05-05T06:03:27.795Z,50.00
2019-05-05T06:05:58.499Z,50.00
2019-05-05T06:08:30.020Z,50.10
2019-05-05T06:11:00.944Z,50.00
2019-05-05T06:13:33.612Z,49.90
2019-05-05T06:16:04.905Z,49.70
2019-05-05T06:18:35.915Z,49.60
2019-05-05T06:21:06.826Z,49.70
2019-05-05T06:23:37.779Z,49.60
2019-05-05T06:26:08.470Z,49.20
2019-05-05T06:28:39.255Z,48.70
2019-05-05T06:31:10.069Z,49.30
2019-05-05T06:33:40.854Z,50.10
2019-05-05T06:36:11.682Z,52.40
2019-05-05T06:38:43.757Z,54.00
2019-05-05T06:41:34.203Z,52.10
2019-05-05T06:44:39.524Z,50.60
2019-05-05T06:47:16.099Z,49.30
2019-05-05T06:49:46.755Z,47.40
2019-05-05T06:52:17.676Z,47.40
2019-05-05T06:54:48.328Z,47.70
2019-05-05T06:57:18.993Z,48.20
2019-05-05T06:59:49.757Z,49.40
2019-05-05T07:02:20.603Z,50.10
2019-05-05T07:04:51.502Z,50.20
2019-05-05T07:07:23.609Z,48.90
2019-05-05T07:09:54.425Z,48.40
2019-05-05T07:12:25.141Z,47.60
2019-05-05T07:14:55.994Z,46.80
2019-05-05T07:17:26.747Z,46.70
2019-05-05T07:19:57.319Z,46.90
2019-05-05T07:22:28.251Z,46.20
2019-05-05T07:24:58.955Z,45.90
2019-05-05T07:27:29.804Z,45.70
2019-05-05T07:30:00.708Z,44.80
2019-05-05T07:32:33.685Z,45.30
2019-05-05T07:35:21.844Z,45.30
2019-05-05T07:37:53.835Z,45.10
2019-05-05T07:40:24.709Z,44.90
2019-05-05T07:42:55.458Z,44.90
2019-05-05T07:45:26.339Z,45.10
2019-05-05T07:47:57.186Z,44.90
2019-05-05T07:50:32.168Z,45.00
2019-05-05T07:53:11.332Z,45.00
2019-05-05T07:55:34.317Z,44.70
2019-05-05T07:58:05.140Z,44.60
2019-05-05T08:00:36.189Z,44.60
2019-05-05T08:03:06.728Z,44.20
2019-05-05T08:05:37.427Z,43.70
2019-05-05T08:08:07.994Z,43.30
2019-05-05T08:10:38.670Z,44.10
2019-05-05T08:13:09.104Z,44.50
2019-05-05T08:15:54.541Z,44.60
2019-05-05T08:18:31.230Z,44.30
2019-05-05T08:21:04.297Z,44.50
2019-05-05T08:23:57.317Z,45.00
2019-05-05T08:26:47.125Z,44.20
2019-05-05T08:29:36.388Z,44.00
2019-05-05T08:32:28.623Z,43.90
2019-05-05T08:35:00.940Z,43.40
2019-05-05T08:37:34.196Z,43.20
2019-05-05T08:40:05.661Z,43.10
2019-05-05T08:42:36.337Z,42.80
2019-05-05T08:45:07.226Z,42.60
2019-05-05T08:47:38.081Z,42.80
2019-05-05T08:50:09.135Z,42.90
2019-05-05T08:52:39.614Z,43.20
2019-05-05T08:55:10.210Z,42.80
2019-05-05T08:57:41.070Z,42.80
2019-05-05T09:00:13.783Z,42.50
2019-05-05T09:02:44.141Z,42.40
2019-05-05T09:05:15.041Z,42.40
2019-05-05T09:07:45.932Z,42.20
2019-05-05T09:10:16.537Z,42.00
2019-05-05T09:12:47.553Z,41.80
2019-05-05T09:15:18.597Z,41.70
2019-05-05T09:17:49.910Z,41.80
2019-05-05T09:20:20.912Z,41.80
2019-05-05T09:22:53.576Z,41.70
2019-05-05T09:25:34.870Z,42.50
2019-05-05T09:28:16.332Z,41.80
2019-05-05T09:30:48.900Z,41.50
2019-05-05T09:33:19.810Z,41.60
2019-05-05T09:35:50.898Z,41.60
2019-05-05T09:38:23.741Z,41.60
2019-05-05T09:40:54.515Z,41.40
2019-05-05T09:43:25.597Z,41.40
2019-05-05T09:45:56.425Z,41.40
2019-05-05T09:48:27.255Z,41.70
2019-05-05T09:50:57.984Z,41.60
2019-05-05T09:53:28.942Z,41.60
2019-05-05T09:56:00.594Z,41.50
2019-05-05T09:58:31.270Z,41.60
2019-05-05T10:01:03.970Z,41.30
2019-05-05T10:03:35.110Z,41.30
2019-05-05T10:06:06.022Z,41.10
2019-05-05T10:08:36.696Z,41.00
2019-05-05T10:11:08.215Z,41.00
2019-05-05T10:13:39.114Z,40.80
2019-05-05T10:16:10.137Z,40.80
2019-05-05T10:18:40.920Z,41.00
2019-05-05T10:21:13.835Z,40.90
2019-05-05T10:23:46.385Z,40.70
2019-05-05T10:26:17.132Z,40.50
2019-05-05T10:28:48.252Z,40.30
2019-05-05T10:31:19.456Z,40.30
2019-05-05T10:33:54.633Z,40.30
2019-05-05T10:36:25.700Z,40.20
2019-05-05T10:39:01.545Z,40.10
2019-05-05T10:41:33.788Z,40.00
2019-05-05T10:44:04.486Z,39.80
2019-05-05T10:46:35.096Z,39.60
2019-05-05T10:49:05.720Z,39.80
2019-05-05T10:51:36.426Z,40.00
2019-05-05T10:54:07.051Z,39.90
2019-05-05T10:56:37.787Z,39.90
2019-05-05T10:59:08.851Z,39.80
2019-05-05T11:01:39.718Z,39.50
2019-05-05T11:04:10.605Z,39.40
2019-05-05T11:06:41.447Z,40.00
2019-05-05T11:09:13.932Z,40.20
2019-05-05T11:11:44.849Z,40.30
2019-05-05T11:14:15.899Z,40.20
2019-05-05T11:16:46.910Z,40.30
2019-05-05T11:19:17.918Z,40.40
2019-05-05T11:21:48.620Z,40.30
2019-05-05T11:24:19.560Z,40.20
2019-05-05T11:26:50.345Z,40.20
2019-05-05T11:29:21.265Z,40.10
2019-05-05T11:31:52.132Z,40.00
2019-05-05T11:34:27.204Z,39.90
2019-05-05T11:37:16.607Z,39.90
2019-05-05T11:39:47.327Z,39.90
2019-05-05T11:42:18.249Z,39.90
2019-05-05T11:44:49.285Z,39.70
2019-05-05T11:47:20.277Z,39.90
2019-05-05T11:49:54.543Z,39.50
2019-05-05T11:52:23.975Z,39.60
2019-05-05T11:55:08.171Z,40.20
2019-05-05T11:57:28.402Z,39.90
2019-05-05T12:00:00.118Z,39.80
2019-05-05T12:02:34.288Z,40.60
2019-05-05T12:05:05.522Z,41.70
2019-05-05T12:07:37.197Z,42.60
2019-05-05T12:10:16.914Z,48.20
2019-05-05T12:12:47.723Z,45.70
2019-05-05T12:15:19.166Z,45.40
2019-05-05T12:17:50.046Z,44.70
2019-05-05T12:20:28.386Z,43.90
2019-05-05T12:22:59.390Z,43.30
2019-05-05T12:25:58.805Z,43.80
2019-05-05T12:28:58.025Z,43.00
2019-05-05T12:31:31.095Z,43.80
2019-05-05T12:34:04.004Z,46.20
2019-05-05T12:36:36.057Z,46.20
2019-05-05T12:39:14.328Z,45.50
2019-05-05T12:41:46.421Z,52.50
2019-05-05T12:44:31.459Z,50.60
2019-05-05T12:47:16.709Z,46.90
2019-05-05T12:49:49.447Z,46.90
2019-05-05T12:52:20.178Z,45.70
2019-05-05T12:54:51.204Z,51.00
2019-05-05T12:57:24.017Z,47.80
2019-05-05T12:59:56.099Z,46.20
2019-05-05T13:02:33.869Z,49.50
2019-05-05T13:05:05.912Z,49.80
2019-05-05T13:07:38.274Z,49.30
2019-05-05T13:10:14.188Z,48.70
2019-05-05T13:12:47.704Z,47.70
2019-05-05T13:15:20.776Z,47.50
2019-05-05T13:17:55.150Z,46.40
2019-05-05T13:20:35.292Z,45.00
2019-05-05T13:23:24.125Z,44.20
2019-05-05T13:26:14.361Z,43.70
2019-05-05T13:28:46.477Z,44.00
2019-05-05T13:31:21.730Z,43.90
2019-05-05T13:33:54.798Z,43.40
2019-05-05T13:36:27.743Z,43.30
2019-05-05T13:38:59.831Z,44.10
2019-05-05T13:41:34.097Z,43.30
2019-05-05T13:44:15.303Z,43.30
2019-05-05T13:46:48.277Z,43.60
2019-05-05T13:49:33.621Z,43.60
2019-05-05T13:52:14.268Z,43.20
2019-05-05T13:54:46.657Z,43.20
2019-05-05T13:57:20.205Z,43.40
2019-05-05T13:59:54.426Z,43.20
2019-05-05T14:02:28.469Z,44.00
2019-05-05T14:05:01.701Z,44.60
2019-05-05T14:07:34.883Z,44.70
2019-05-05T14:10:11.038Z,44.60
2019-05-05T14:12:47.961Z,44.60
2019-05-05T14:15:20.991Z,44.70
2019-05-05T14:17:54.382Z,44.60
2019-05-05T14:20:30.717Z,44.50
2019-05-05T14:23:05.383Z,44.50
2019-05-05T14:25:37.533Z,44.10
2019-05-05T14:28:10.548Z,44.30
2019-05-05T14:30:54.575Z,44.10
2019-05-05T14:33:30.567Z,44.70
2019-05-05T14:36:24.424Z,44.60
2019-05-05T14:38:58.954Z,44.50
2019-05-05T14:41:30.516Z,44.20
2019-05-05T14:44:04.322Z,44.80
2019-05-05T14:46:35.978Z,44.80
2019-05-05T14:49:07.098Z,44.40
2019-05-05T14:51:39.546Z,44.20
2019-05-05T14:54:11.516Z,43.40
2019-05-05T14:56:44.045Z,43.40
2019-05-05T14:59:14.834Z,43.10
2019-05-05T15:01:45.541Z,43.20
2019-05-05T15:04:18.756Z,43.40
2019-05-05T15:06:56.566Z,43.60
2019-05-05T15:09:49.548Z,43.60
2019-05-05T15:12:29.778Z,43.70
2019-05-05T15:15:00.239Z,43.80
2019-05-05T15:17:30.636Z,43.80
2019-05-05T15:20:01.388Z,44.10
2019-05-05T15:22:34.284Z,44.20
2019-05-05T15:25:04.961Z,44.50
2019-05-05T15:27:36.007Z,44.40
2019-05-05T15:30:07.860Z,44.30
2019-05-05T15:32:38.898Z,44.40
2019-05-05T15:35:10.921Z,44.90
2019-05-05T15:37:43.564Z,45.50
2019-05-05T15:40:14.380Z,45.30
2019-05-05T15:42:45.327Z,44.80
2019-05-05T15:45:16.514Z,45.00
2019-05-05T15:47:47.237Z,44.40
2019-05-05T15:50:18.042Z,44.70
2019-05-05T15:52:48.787Z,45.30
2019-05-05T15:55:19.748Z,44.90
2019-05-05T15:57:50.671Z,44.60
2019-05-05T16:00:21.744Z,44.60
2019-05-05T16:02:54.730Z,44.40
2019-05-05T16:05:25.360Z,44.40
2019-05-05T16:07:56.358Z,44.30
2019-05-05T16:10:27.305Z,44.40
2019-05-05T16:12:58.077Z,44.30
2019-05-05T16:15:47.905Z,44.40
2019-05-05T16:18:24.377Z,44.30
2019-05-05T16:21:03.494Z,44.30
2019-05-05T16:23:43.588Z,44.20
2019-05-05T16:26:14.736Z,44.30
2019-05-05T16:28:45.572Z,44.20
2019-05-05T16:31:17.099Z,44.20
2019-05-05T16:33:48.712Z,44.20
2019-05-05T16:36:20.932Z,44.20
2019-05-05T16:38:52.202Z,44.20
2019-05-05T16:41:23.795Z,44.20
2019-05-05T16:43:54.615Z,44.20
2019-05-05T16:46:25.258Z,44.20
2019-05-05T16:48:56.042Z,44.10
2019-05-05T16:51:30.821Z,43.70
2019-05-05T16:54:04.807Z,43.60
2019-05-05T16:56:35.643Z,43.10
2019-05-05T16:59:06.249Z,42.60
2019-05-05T17:01:37.221Z,43.40
2019-05-05T17:04:11.384Z,43.60
2019-05-05T17:06:40.713Z,43.60
2019-05-05T17:09:11.391Z,46.40
2019-05-05T17:11:45.098Z,49.90
2019-05-05T17:14:25.749Z,50.70
2019-05-05T17:17:18.408Z,50.50
2019-05-05T17:19:56.056Z,50.90
2019-05-05T17:22:49.001Z,48.70
2019-05-05T17:25:19.795Z,47.90
2019-05-05T17:27:51.349Z,47.30
2019-05-05T17:30:25.392Z,47.40
2019-05-05T17:32:55.005Z,47.90
2019-05-05T17:35:26.063Z,48.60
2019-05-05T17:38:08.159Z,48.20
2019-05-05T17:40:56.433Z,47.20
2019-05-05T17:43:46.079Z,46.30
2019-05-05T17:46:24.226Z,46.40
2019-05-05T17:49:28.741Z,46.20
2019-05-05T17:52:03.753Z,45.90
2019-05-05T17:54:44.564Z,46.10
2019-05-05T17:57:15.440Z,46.40
2019-05-05T17:59:46.443Z,46.30
2019-05-05T18:02:17.229Z,46.40
2019-05-05T18:04:48.140Z,46.10
2019-05-05T18:07:27.738Z,46.90
2019-05-05T18:10:07.381Z,46.70
2019-05-05T18:12:49.798Z,46.50
2019-05-05T18:15:38.468Z,46.50
2019-05-05T18:18:09.567Z,46.60
2019-05-05T18:20:40.665Z,46.60
2019-05-05T18:23:13.753Z,46.40
2019-05-05T18:25:44.767Z,47.00
2019-05-05T18:28:19.979Z,47.20
2019-05-05T18:30:48.420Z,46.90
2019-05-05T18:33:19.177Z,47.10
2019-05-05T18:35:50.187Z,47.10
2019-05-05T18:38:23.421Z,47.00
2019-05-05T18:40:55.962Z,47.10
2019-05-05T18:43:36.443Z,46.90
2019-05-05T18:46:07.436Z,47.10
2019-05-05T18:48:38.507Z,47.30
2019-05-05T18:51:09.421Z,47.30
2019-05-05T18:53:40.652Z,47.20
2019-05-05T18:56:11.539Z,46.80
2019-05-05T18:58:44.574Z,45.80
2019-05-05T19:01:40.194Z,45.50
2019-05-05T19:04:29.841Z,45.40
2019-05-05T19:07:16.990Z,45.00
2019-05-05T19:09:53.890Z,45.20
2019-05-05T19:12:20.564Z,45.30
2019-05-05T19:14:51.921Z,45.30
2019-05-05T19:17:23.537Z,45.30
2019-05-05T19:19:58.237Z,45.50
2019-05-05T19:22:28.990Z,45.20
2019-05-05T19:25:15.686Z,45.20
2019-05-05T19:27:47.716Z,45.30
2019-05-05T19:30:18.711Z,44.60
2019-05-05T19:32:49.670Z,45.10
2019-05-05T19:35:20.676Z,44.80
2019-05-05T19:37:51.564Z,45.00
2019-05-05T19:40:24.217Z,45.10
2019-05-05T19:42:54.982Z,45.30
2019-05-05T19:45:26.813Z,45.20
2019-05-05T19:47:57.761Z,45.20
2019-05-05T19:50:36.354Z,45.10
2019-05-05T19:53:24.567Z,45.30
2019-05-05T19:55:55.694Z,45.00
2019-05-05T19:58:26.735Z,44.80
2019-05-05T20:01:04.602Z,45.00
2019-05-05T20:03:35.561Z,45.00
2019-05-05T20:06:06.639Z,45.00
2019-05-05T20:08:41.759Z,45.00
2019-05-05T20:11:09.947Z,45.00
2019-05-05T20:13:40.870Z,44.90
2019-05-05T20:16:27.391Z,44.90
2019-05-05T20:18:58.264Z,45.10
2019-05-05T20:21:29.147Z,44.70
2019-05-05T20:23:59.819Z,44.60
2019-05-05T20:26:30.842Z,44.10
2019-05-05T20:29:13.292Z,44.00
2019-05-05T20:31:34.651Z,44.10
2019-05-05T20:34:21.415Z,44.00
2019-05-05T20:37:09.059Z,44.40
2019-05-05T20:39:40.090Z,44.50
2019-05-05T20:42:11.070Z,44.50
2019-05-05T20:44:43.737Z,44.20
2019-05-05T20:47:14.583Z,44.00
2019-05-05T20:49:45.327Z,43.50
2019-05-05T20:52:16.110Z,43.00
2019-05-05T20:54:47.074Z,43.10
2019-05-05T20:57:18.046Z,43.20
2019-05-05T20:59:48.958Z,43.00
2019-05-05T21:02:19.929Z,43.20
2019-05-05T21:04:50.757Z,43.30
2019-05-05T21:07:25.854Z,43.30
2019-05-05T21:09:54.447Z,43.10
2019-05-05T21:12:39.164Z,43.10
2019-05-05T21:14:57.715Z,43.00
2019-05-05T21:17:28.711Z,43.00
2019-05-05T21:19:59.917Z,43.00
2019-05-05T21:22:49.807Z,42.90
2019-05-05T21:25:34.908Z,42.90
2019-05-05T21:28:05.789Z,42.80
2019-05-05T21:30:36.786Z,42.70
2019-05-05T21:33:07.756Z,42.70
2019-05-05T21:35:38.405Z,42.70
2019-05-05T21:38:09.299Z,42.60
2019-05-05T21:40:40.231Z,42.60
2019-05-05T21:43:11.092Z,42.50
2019-05-05T21:45:44.319Z,42.20
2019-05-05T21:48:15.290Z,42.20
2019-05-05T21:50:54.060Z,42.20
2019-05-05T21:53:49.409Z,42.30
2019-05-05T21:56:57.606Z,42.20
2019-05-05T21:59:28.617Z,42.20
2019-05-05T22:02:00.299Z,42.60
2019-05-05T22:04:33.681Z,42.00
2019-05-05T22:07:04.287Z,42.20
2019-05-05T22:09:35.177Z,42.20
2019-05-05T22:12:05.796Z,42.30
2019-05-05T22:14:36.677Z,42.30
2019-05-05T22:17:07.429Z,42.40
2019-05-05T22:19:42.051Z,42.10
2019-05-05T22:22:15.124Z,42.30
2019-05-05T22:24:45.995Z,42.20
2019-05-05T22:27:16.802Z,42.20
2019-05-05T22:29:47.794Z,42.30
2019-05-05T22:32:18.778Z,42.10
2019-05-05T22:34:49.641Z,42.20
2019-05-05T22:37:20.364Z,42.10
2019-05-05T22:39:51.295Z,42.10
2019-05-05T22:42:22.163Z,42.10
2019-05-05T22:44:52.778Z,42.00
2019-05-05T22:47:23.768Z,42.10
2019-05-05T22:49:54.647Z,41.90
2019-05-05T22:52:25.622Z,41.60
2019-05-05T22:54:56.439Z,41.90
2019-05-05T22:57:26.961Z,41.90
2019-05-05T22:59:57.802Z,41.60
2019-05-05T23:02:33.817Z,42.30
2019-05-05T23:05:10.365Z,42.60
2019-05-05T23:07:40.923Z,42.70
2019-05-05T23:10:13.999Z,42.80
2019-05-05T23:12:44.570Z,42.70
2019-05-05T23:15:15.313Z,42.60
2019-05-05T23:18:03.930Z,42.60
2019-05-05T23:21:03.638Z,43.20
2019-05-05T23:23:56.007Z,42.60
2019-05-05T23:26:26.500Z,43.20
2019-05-05T23:28:57.192Z,43.00
2019-05-05T23:31:28.014Z,43.10
2019-05-05T23:33:58.804Z,43.00
2019-05-05T23:36:29.572Z,43.00
2019-05-05T23:39:00.303Z,43.00
2019-05-05T23:41:31.284Z,42.90
2019-05-05T23:44:03.641Z,43.00
2019-05-05T23:46:34.913Z,43.00
2019-05-05T23:49:05.830Z,43.10
2019-05-05T23:51:36.794Z,43.20
2019-05-05T23:54:07.471Z,43.20
2019-05-05T23:56:38.260Z,43.30
2019-05-05T23:59:08.743Z,43.40
